• Join FlightAware (Why Join?)
  • Login
  • US Flag 
05:59AM EDT


 

Airport Tracker/Info


-or-


 

Live Flight TrackerFlight Track Log ✈ UPS110 ✈ 05-Jan-2014 ✈ PANC - RJAA / NRT

Flight Track Log - Related Links

Times and Time Zones

All times are in EST time to prevent confusion due to time zone crossing. See the UPS110 flight status page for this flight to view local times or setup timezone preferences in your user account.

Time Position Orientation Groundspeed Altitude Reporting Facility
EST Latitude Longitude Course Direction KTS MPH feet Rate Location/Type
10:54AM 61.2812 -151.8887 272° West 440 506 25,300  Level FlightAware ADS-B (PAEN / ENA)
10:54AM 61.2831 -151.9994 272° West 444 511 26,400 2,100 Climbing FlightAware ADS-B (PAEN / ENA)
10:55AM 61.2844 -152.1444 271° West 448 516 27,400 2,400 Climbing FlightAware ADS-B (PAEN / ENA)
10:55AM 61.2850 -152.3316 270° West 440 506 29,400 2,520 Climbing FlightAware ADS-B (PANC)
10:56AM 61.2854 -152.4621 270° West 437 503 30,600 2,040 Climbing FlightAware ADS-B (PAEN / ENA)
10:56AM 61.2857 -152.6181 270° West 434 499 31,800 1,740 Climbing FlightAware ADS-B (PANC)
10:57AM 61.2860 -152.7729 270° West 434 499 32,800 1,500 Climbing FlightAware ADS-B (PAEN / ENA)
10:58AM 61.2861 -152.9015 270° West 438 504 33,500 1,140 Climbing FlightAware ADS-B (PAEN / ENA)
10:58AM 61.2860 -153.0327 270° West 444 511 34,000 420 Climbing FlightAware ADS-B (PANC)
10:59AM 61.2857 -153.1701 270° West 446 513 34,000  Level FlightAware ADS-B (PANC)
10:59AM 61.2854 -153.3380 270° West 446 513 34,000  Level FlightAware ADS-B (PANC)
11:00AM 61.2846 -153.5396 270° West 444 511 34,000  Level FlightAware ADS-B (PAEN / ENA)
11:01AM 61.2838 -153.6697 269° West 443 510 34,000  Level FlightAware ADS-B (PAEN / ENA)
11:01AM 61.2825 -153.8581 269° West 441 507 34,000  Level FlightAware ADS-B (PAEN / ENA)
11:02AM 61.2816 -153.9857 269° West 441 507 34,000  Level FlightAware ADS-B (PAEN / ENA)
11:02AM 61.2802 -154.1463 269° West 440 506 34,000  Level FlightAware ADS-B (PANC)
11:03AM 61.2786 -154.3065 269° West 439 505 34,000  Level FlightAware ADS-B (PANC)
11:04AM 61.2771 -154.4335 269° West 439 505 34,000  Level FlightAware ADS-B (PANC)
11:04AM 61.2759 -154.5342 269° West 439 505 34,000  Level FlightAware ADS-B (PANC)
11:05AM 61.2741 -154.6768 269° West 440 506 34,000  Level FlightAware ADS-B (PANC)
11:05AM 61.2707 -154.8905 268° West 441 507 34,000  Level FlightAware ADS-B (PAEN / ENA)
11:07AM 61.2500 -155.2000 268° West 440 506 34,000  Level Anchorage Center
11:08AM 61.2500 -155.4500 270° West 440 506 34,000  Level Anchorage Center
11:09AM 61.2500 -155.6833 270° West 430 495 34,000  Level Anchorage Center
11:10AM 61.2500 -155.9500 270° West 450 518 34,000  Level Anchorage Center
11:11AM 61.2500 -156.2000 270° West 450 518 34,000  Level Anchorage Center
11:12AM 61.2500 -156.4667 270° West 440 506 34,000  Level Anchorage Center
11:13AM 61.2500 -156.7333 270° West 450 518 34,000  Level Anchorage Center
11:14AM 61.2500 -156.9833 270° West 450 518 34,000  Level Anchorage Center
11:15AM 61.2500 -157.2500 270° West 450 518 34,000  Level Anchorage Center
11:16AM 61.2500 -157.5167 270° West 450 518 34,000  Level Anchorage Center
11:17AM 61.2500 -157.7833 270° West 460 529 34,000  Level Anchorage Center
11:18AM 61.2333 -158.0333 262° West 450 518 34,000  Level Anchorage Center
11:19AM 61.2333 -158.3000 270° West 450 518 34,000  Level Anchorage Center
11:20AM 61.2333 -158.5667 270° West 460 529 34,000  Level Anchorage Center
11:21AM 61.2333 -158.8333 270° West 450 518 34,000  Level Anchorage Center
11:22AM 61.2333 -159.1000 270° West 460 529 34,000  Level Anchorage Center
11:23AM 61.2333 -159.3667 270° West 450 518 34,000  Level Anchorage Center
11:24AM 61.2167 -159.6333 263° West 450 518 34,000  Level Anchorage Center
11:25AM 61.2167 -159.9000 270° West 450 518 34,000  Level Anchorage Center
11:26AM 61.2167 -160.1500 270° West 450 518 34,000  Level Anchorage Center
11:27AM 61.2000 -160.4167 263° West 440 506 34,000  Level Anchorage Center
11:28AM 61.1833 -160.7167 264° West 450 518 34,000  Level Anchorage Center
11:29AM 61.1833 -160.9667 270° West 450 518 34,000  Level Anchorage Center
11:30AM 61.1833 -161.2333 270° West 450 518 34,000  Level Anchorage Center
11:31AM 61.1667 -161.4833 262° West 450 518 34,000  Level Anchorage Center
11:32AM 61.1500 -161.7500 263° West 450 518 34,000  Level Anchorage Center
11:33AM 61.1500 -162.0167 270° West 440 506 34,000  Level Anchorage Center
11:34AM 61.1333 -162.2667 262° West 440 506 34,000  Level Anchorage Center
11:35AM 61.1333 -162.5333 270° West 450 518 34,000  Level Anchorage Center
11:36AM 61.1167 -162.7833 262° West 450 518 34,000  Level Anchorage Center
11:37AM 61.1000 -163.0500 263° West 440 506 34,000  Level Anchorage Center
11:38AM 61.0667 -163.3000 255° West 450 518 34,000  Level Anchorage Center
11:39AM 61.0333 -163.5500 255° West 450 518 34,000  Level Anchorage Center
11:40AM 61.0000 -163.8000 255° West 450 518 34,000  Level Anchorage Center
11:41AM 60.9500 -164.0667 249° West 460 529 34,000  Level Anchorage Center
11:42AM 60.9167 -164.3167 255° West 450 518 34,000  Level Anchorage Center
11:43AM 60.8833 -164.5667 255° West 450 518 34,000  Level Anchorage Center
11:44AM 60.8500 -164.8167 255° West 460 529 34,000  Level Anchorage Center
11:45AM 60.8000 -165.0667 248° West 460 529 34,000  Level Anchorage Center
11:46AM 60.7667 -165.3167 255° West 460 529 34,000  Level Anchorage Center
11:47AM 60.7167 -165.5667 248° West 460 529 34,000  Level Anchorage Center
11:48AM 60.6833 -165.8333 256° West 460 529 34,000  Level Anchorage Center
11:49AM 60.6333 -166.0833 248° West 460 529 34,000  Level Anchorage Center
11:50AM 60.6000 -166.3333 255° West 460 529 34,000  Level Anchorage Center
11:51AM 60.5500 -166.5833 248° West 470 541 34,000  Level Anchorage Center
11:52AM 60.5167 -166.8333 255° West 470 541 34,000  Level Anchorage Center
11:53AM 60.4667 -167.0833 248° West 470 541 34,000  Level Anchorage Center
11:54AM 60.4167 -167.3333 248° West 470 541 34,000  Level Anchorage Center
11:55AM 60.3833 -167.5833 255° West 470 541 34,000  Level Anchorage Center
11:56AM 60.3333 -167.8333 248° West 470 541 34,000  Level Anchorage Center
11:57AM 60.2833 -168.0833 248° West 470 541 34,000  Level Anchorage Center
11:58AM 60.2500 -168.3333 255° West 470 541 34,000  Level Anchorage Center
11:59AM 60.2000 -168.5833 248° West 460 529 34,000  Level Anchorage Center
12:00PM 60.1500 -168.8167 247° West 460 529 34,000  Level Anchorage Center
12:01PM 60.1000 -169.0667 248° West 460 529 34,000  Level Anchorage Center
12:02PM 60.0667 -169.3000 254° West 460 529 34,000  Level Anchorage Center
12:03PM 60.0167 -169.5500 248° West 460 529 34,000  Level Anchorage Center
12:04PM 59.9667 -169.7833 247° West 460 529 34,000  Level Anchorage Center
12:05PM 59.9167 -170.0333 248° West 470 541 34,000  Level Anchorage Center
12:06PM 59.8667 -170.2667 247° West 460 529 34,000  Level Anchorage Center
12:07PM 59.8333 -170.4833 253° West 460 529 34,000  Level Anchorage Center
12:08PM 59.7667 -170.7500 244° Southwest 460 529 34,000  Level Anchorage Center
12:09PM 59.7333 -170.9667 253° West 470 541 34,000  Level Anchorage Center
12:10PM 59.6833 -171.2000 247° West 450 518 34,000  Level Anchorage Center
12:11PM 59.6333 -171.4333 247° West 470 541 34,000  Level Anchorage Center
12:12PM 59.5833 -171.6667 247° West 470 541 34,000  Level Anchorage Center
12:13PM 59.5333 -171.9000 247° West 460 529 34,000  Level Anchorage Center
12:14PM 59.4833 -172.1333 247° West 460 529 34,000  Level Anchorage Center
12:15PM 59.4333 -172.3667 247° West 460 529 34,000  Level Anchorage Center
12:16PM 59.3833 -172.6000 247° West 460 529 34,000  Level Anchorage Center
12:17PM 59.3333 -172.8333 247° West 460 529 34,000  Level Anchorage Center
12:18PM 59.2833 -173.0833 249° West 460 529 34,000  Level Anchorage Center
12:19PM 59.2333 -173.3000 246° West 460 529 34,000  Level Anchorage Center
12:20PM 59.1833 -173.5333 247° West 460 529 34,000  Level Anchorage Center
12:21PM 59.1333 -173.7667 247° West 470 541 34,000  Level Anchorage Center
12:22PM 59.0833 -174.0000 247° West 450 518 34,000  Level Anchorage Center
12:23PM 59.0333 -174.2333 247° West 460 529 34,000  Level Anchorage Center
12:24PM 58.9833 -174.4667 248° West 470 541 34,000  Level Anchorage Center
12:25PM 58.9333 -174.7000 248° West 460 529 34,000  Level Anchorage Center
12:26PM 58.8833 -174.9167 246° West 470 541 34,000  Level Anchorage Center
12:27PM 58.8333 -175.1500 248° West 460 529 34,000  Level Anchorage Center
12:28PM 58.7833 -175.3833 248° West 460 529 34,000  Level Anchorage Center
12:29PM 58.7333 -175.6000 246° West 460 529 34,000  Level Anchorage Center
12:30PM 58.6667 -175.8333 241° Southwest 480 552 34,000  Level Anchorage Center
12:31PM 58.6000 -176.1000 244° Southwest 460 529 34,000  Level Anchorage Center
12:32PM 58.5500 -176.3333 248° West 450 518 34,000  Level Anchorage Center
12:33PM 58.5000 -176.5500 246° West 460 529 34,000  Level Anchorage Center
12:34PM 58.4500 -176.7667 246° West 460 529 34,000  Level Anchorage Center
12:36PM 58.3833 -177.1000 245° Southwest 467 537 34,000  Level Anchorage Center
12:38PM 58.2500 -177.6333 244° Southwest 464 534 34,000  Level Anchorage Center
12:48PM 57.7000 -179.7167 242° Southwest 458 527 34,000  Level Anchorage Center
12:57PM 57.1333 178.3167 241° Southwest 463 533 34,000  Level Anchorage Center
01:02PM 56.8333 177.3500 240° Southwest 459 528 34,000  Level Anchorage Center
01:07PM 56.5167 176.3833 239° Southwest 457 526 34,000  Level Anchorage Center
01:17PM 55.8833 174.5167 238° Southwest 454 522 34,000  Level Anchorage Center
01:18PM 55.7667 174.2167 237° Southwest 470 541 34,000  Level Anchorage Center
01:19PM 55.7102 174.0432 237° Southwest 457 526 34,000  Level FlightAware Transoceanic
01:19PM 55.7000 174.0500 235° Southwest 450 518 34,000  Level Anchorage Center
01:20PM 55.6410 173.8526 237° Southwest 457 526 34,000  Level FlightAware Transoceanic
01:20PM 55.6333 173.8333 241° Southwest 460 529 34,000  Level Anchorage Center
01:21PM 55.5715 173.6626 237° Southwest 457 526 34,000  Level FlightAware Transoceanic
01:21PM 55.5667 173.6667 235° Southwest 460 529 34,000  Level Anchorage Center
01:22PM 55.5018 173.4734 237° Southwest 457 526 34,000  Level FlightAware Transoceanic
01:22PM 55.5000 173.4667 240° Southwest 460 529 34,000  Level Anchorage Center
01:23PM 55.4514 173.3323 237° Southwest 454 522 34,000  Level FlightAware Transoceanic
01:23PM 55.4333 173.3167 232° Southwest 450 518 34,000  Level Anchorage Center
01:24PM 55.3500 173.1000 236° Southwest 460 529 34,000  Level Anchorage Center
01:25PM 55.2833 172.9000 240° Southwest 450 518 34,000  Level Anchorage Center
01:26PM 55.2167 172.7333 235° Southwest 460 529 34,000  Level Anchorage Center
01:27PM 55.1333 172.5333 234° Southwest 480 552 34,000  Level Anchorage Center
01:28PM 55.0667 172.3667 235° Southwest 460 529 34,000  Level Anchorage Center
01:29PM 55.0000 172.1667 240° Southwest 460 529 34,000  Level Anchorage Center
01:30PM 54.9333 172.0000 235° Southwest 470 541 34,000  Level Anchorage Center
01:31PM 54.8500 171.8000 234° Southwest 460 529 34,000  Level Anchorage Center
01:32PM 54.7667 171.6000 234° Southwest 470 541 34,000  Level Anchorage Center
01:33PM 54.7000 171.4500 232° Southwest 460 529 34,000  Level Anchorage Center
01:34PM 54.6167 171.2500 234° Southwest 460 529 34,000  Level Anchorage Center
01:35PM 54.5500 171.1000 233° Southwest 460 529 34,000  Level Anchorage Center
01:36PM 54.4833 170.9000 240° Southwest 460 529 34,000  Level Anchorage Center
01:37PM 54.4167 170.7500 233° Southwest 460 529 34,000  Level Anchorage Center
01:38PM 54.3333 170.5667 232° Southwest 460 529 34,000  Level Anchorage Center
01:39PM 54.2667 170.4167 233° Southwest 460 529 34,000  Level Anchorage Center
01:40PM 54.1833 170.2167 235° Southwest 460 529 34,000  Level Anchorage Center
01:41PM 54.1000 170.0333 232° Southwest 450 518 34,000  Level Anchorage Center
01:42PM 54.0333 169.8833 233° Southwest 450 518 34,000  Level Anchorage Center
01:43PM 53.9500 169.7000 232° Southwest 450 518 34,000  Level Anchorage Center
01:44PM 53.8833 169.5500 233° Southwest 450 518 34,000  Level Anchorage Center
01:45PM 53.8000 169.3833 230° Southwest 460 529 34,000  Level Anchorage Center
01:46PM 53.7333 169.2333 233° Southwest 440 506 34,000  Level Anchorage Center
01:51PM 53.4167 168.2333 240° Southwest 450 518 34,000  Level Anchorage Center
01:55PM 53.1833 167.6167 239° Southwest 452 520 34,000  Level Anchorage Center
02:04PM 52.5500 165.9000 238° Southwest 450 518 34,000  Level Anchorage Center
02:14PM 51.9000 164.2500 237° Southwest 455 524 34,000  Level Anchorage Center
02:18PM 51.6500 163.6500 236° Southwest 449 517 34,000  Level Anchorage Center
02:24PM 51.2333 162.6500 235° Southwest 451 519 34,000  Level Anchorage Center
02:33PM 50.5333 161.1000 235° Southwest 450 518 34,000  Level Anchorage Center
02:38PM 50.2000 160.3833 234° Southwest 449 517 34,000  Level Anchorage Center
02:39PM 50.1283 160.2175 234° Southwest 450 518 34,000  Level FlightAware Transoceanic
02:40PM 50.0601 160.0719 234° Southwest 450 518 34,000  Level FlightAware Transoceanic
02:41PM 49.9918 159.9267 234° Southwest 450 518 34,000  Level FlightAware Transoceanic
02:42PM 49.9233 159.7819 234° Southwest 450 518 34,000  Level FlightAware Transoceanic
02:43PM 49.8546 159.6375 233° Southwest 450 518 34,000  Level FlightAware Transoceanic
02:44PM 49.7863 159.4964 234° Southwest 449 517 34,000  Level FlightAware Transoceanic
02:45PM 49.7167 159.3500 233° Southwest 449 517 34,000  Level FlightAware Transoceanic
02:46PM 49.6445 159.2026 233° Southwest 449 517 34,000  Level FlightAware Transoceanic
02:47PM 49.5721 159.0556 233° Southwest 449 517 34,000  Level FlightAware Transoceanic
02:48PM 49.4995 158.9090 233° Southwest 449 517 34,000  Level FlightAware Transoceanic
02:49PM 49.4267 158.7629 232° Southwest 449 517 34,000  Level FlightAware Transoceanic
02:50PM 49.3538 158.6172 232° Southwest 449 517 34,000  Level FlightAware Transoceanic
02:51PM 49.2806 158.4719 232° Southwest 449 517 34,000  Level FlightAware Transoceanic
02:52PM 49.2073 158.3271 232° Southwest 449 517 34,000  Level FlightAware Transoceanic
02:53PM 49.1338 158.1827 232° Southwest 449 517 34,000  Level FlightAware Transoceanic
02:54PM 49.0601 158.0387 232° Southwest 449 517 34,000  Level FlightAware Transoceanic
02:55PM 48.9863 157.8952 232° Southwest 449 517 34,000  Level FlightAware Transoceanic
02:56PM 48.9123 157.7520 232° Southwest 449 517 34,000  Level FlightAware Transoceanic
02:57PM 48.8381 157.6093 232° Southwest 449 517 34,000  Level FlightAware Transoceanic
02:58PM 48.7637 157.4671 232° Southwest 449 517 34,000  Level FlightAware Transoceanic
02:59PM 48.6891 157.3252 231° Southwest 449 517 34,000  Level FlightAware Transoceanic
03:00PM 48.6144 157.1838 231° Southwest 449 517 34,000  Level FlightAware Transoceanic
03:01PM 48.5395 157.0428 231° Southwest 449 517 34,000  Level FlightAware Transoceanic
03:02PM 48.4644 156.9022 231° Southwest 449 517 34,000  Level FlightAware Transoceanic
03:03PM 48.3891 156.7620 231° Southwest 449 517 34,000  Level FlightAware Transoceanic
03:04PM 48.3137 156.6222 231° Southwest 449 517 34,000  Level FlightAware Transoceanic
03:05PM 48.2381 156.4829 231° Southwest 449 517 34,000  Level FlightAware Transoceanic
03:06PM 48.1624 156.3439 231° Southwest 449 517 34,000  Level FlightAware Transoceanic
03:07PM 48.0865 156.2054 231° Southwest 449 517 34,000  Level FlightAware Transoceanic
03:08PM 48.0104 156.0673 230° Southwest 449 517 34,000  Level FlightAware Transoceanic
03:09PM 47.9341 155.9296 230° Southwest 449 517 34,000  Level FlightAware Transoceanic
03:10PM 47.8577 155.7923 230° Southwest 449 517 34,000  Level FlightAware Transoceanic
03:11PM 47.7811 155.6553 230° Southwest 449 517 34,000  Level FlightAware Transoceanic
03:12PM 47.7044 155.5188 230° Southwest 449 517 34,000  Level FlightAware Transoceanic
03:13PM 47.6275 155.3828 230° Southwest 449 517 34,000  Level FlightAware Transoceanic
03:14PM 47.5504 155.2471 230° Southwest 449 517 34,000  Level FlightAware Transoceanic
03:15PM 47.4732 155.1117 230° Southwest 449 517 34,000  Level FlightAware Transoceanic
03:16PM 47.3958 154.9768 230° Southwest 449 517 34,000  Level FlightAware Transoceanic
03:17PM 47.3183 154.8423 230° Southwest 449 517 34,000  Level FlightAware Transoceanic
03:18PM 47.2406 154.7082 229° Southwest 449 517 34,000  Level FlightAware Transoceanic
03:19PM 47.1627 154.5745 229° Southwest 449 517 34,000  Level FlightAware Transoceanic
03:20PM 47.0847 154.4412 229° Southwest 449 517 34,000  Level FlightAware Transoceanic
03:21PM 47.0066 154.3082 229° Southwest 449 517 34,000  Level FlightAware Transoceanic
03:22PM 46.9283 154.1757 229° Southwest 449 517 34,000  Level FlightAware Transoceanic
03:23PM 46.8498 154.0435 229° Southwest 449 517 34,000  Level FlightAware Transoceanic
03:24PM 46.7712 153.9117 229° Southwest 449 517 34,000  Level FlightAware Transoceanic
03:25PM 46.6924 153.7803 229° Southwest 449 517 34,000  Level FlightAware Transoceanic
03:26PM 46.6135 153.6494 229° Southwest 449 517 34,000  Level FlightAware Transoceanic
03:27PM 46.5344 153.5187 229° Southwest 449 517 34,000  Level FlightAware Transoceanic
03:28PM 46.4552 153.3885 228° Southwest 449 517 34,000  Level FlightAware Transoceanic
03:29PM 46.3758 153.2586 228° Southwest 449 517 34,000  Level FlightAware Transoceanic
03:30PM 46.2963 153.1291 228° Southwest 449 517 34,000 -240 Level FlightAware Transoceanic
03:31PM 46.2176 153.0016 228° Southwest  Level FlightAware Approximate
03:32PM 46.1386 152.8746 228° Southwest  Level FlightAware Approximate
03:33PM 46.1393 152.8765 228° Southwest  Level FlightAware Approximate
03:34PM 46.0598 152.7503 228° Southwest  Level FlightAware Approximate
03:35PM 45.9802 152.6245 228° Southwest  Level FlightAware Approximate
03:36PM 45.9005 152.4990 228° Southwest  Level FlightAware Approximate
03:37PM 45.8206 152.3739 228° Southwest  Level FlightAware Approximate
03:38PM 45.7406 152.2492 227° Southwest  Level FlightAware Approximate
03:39PM 45.6605 152.1248 227° Southwest  Level FlightAware Approximate
03:40PM 45.5802 152.0007 227° Southwest  Level FlightAware Approximate
03:41PM 45.4998 151.8770 227° Southwest  Level FlightAware Approximate
03:42PM 45.4193 151.7537 227° Southwest  Level FlightAware Approximate
03:43PM 45.3386 151.6307 227° Southwest  Level FlightAware Approximate
03:44PM 45.2578 151.5081 227° Southwest  Level FlightAware Approximate
03:45PM 45.1768 151.3858 227° Southwest  Level FlightAware Approximate
03:46PM 45.0957 151.2639 227° Southwest  Level FlightAware Approximate
03:47PM 45.0145 151.1423 227° Southwest  Level FlightAware Approximate
03:48PM 44.9332 151.0211 227° Southwest  Level FlightAware Approximate
03:49PM 44.8518 150.9002 226° Southwest  Level FlightAware Approximate
03:50PM 44.7702 150.7796 226° Southwest  Level FlightAware Approximate
03:51PM 44.6885 150.6594 226° Southwest  Level FlightAware Approximate
03:52PM 44.6066 150.5395 226° Southwest  Level FlightAware Approximate
03:53PM 44.5247 150.4200 226° Southwest  Level FlightAware Approximate
03:54PM 44.4426 150.3008 226° Southwest  Level FlightAware Approximate
03:55PM 44.3604 150.1819 226° Southwest  Level FlightAware Approximate
03:56PM 44.2781 150.0633 226° Southwest  Level FlightAware Approximate
03:57PM 44.1956 149.9451 226° Southwest  Level FlightAware Approximate
03:58PM 44.1130 149.8273 226° Southwest  Level FlightAware Approximate
03:59PM 44.0303 149.7097 226° Southwest  Level FlightAware Approximate
04:00PM 43.9475 149.5925 226° Southwest  Level FlightAware Approximate
04:01PM 43.8646 149.4756 225° Southwest  Level FlightAware Approximate
04:02PM 43.7815 149.3590 225° Southwest  Level FlightAware Approximate
04:03PM 43.6984 149.2428 225° Southwest  Level FlightAware Approximate
04:04PM 43.6151 149.1269 225° Southwest  Level FlightAware Approximate
04:05PM 43.5317 149.0113 225° Southwest  Level FlightAware Approximate
04:06PM 43.4481 148.8960 225° Southwest  Level FlightAware Approximate
04:07PM 43.3645 148.7810 225° Southwest  Level FlightAware Approximate
04:08PM 43.2808 148.6664 225° Southwest  Level FlightAware Approximate
04:09PM 43.1969 148.5520 225° Southwest  Level FlightAware Approximate
04:10PM 43.1129 148.4380 225° Southwest  Level FlightAware Approximate
04:11PM 43.0288 148.3243 225° Southwest  Level FlightAware Approximate
04:12PM 42.9446 148.2109 225° Southwest  Level FlightAware Approximate
04:13PM 42.8603 148.0979 225° Southwest  Level FlightAware Approximate
04:14PM 42.7758 147.9851 224° Southwest  Level FlightAware Approximate
04:15PM 42.6913 147.8726 224° Southwest  Level FlightAware Approximate
04:16PM 42.6067 147.7605 224° Southwest  Level FlightAware Approximate
04:17PM 42.5219 147.6486 224° Southwest  Level FlightAware Approximate
04:18PM 42.4370 147.5370 224° Southwest  Level FlightAware Approximate
04:19PM 42.3524 147.4253 225° Southwest  Level FlightAware Approximate
04:20PM 42.2681 147.3132 225° Southwest  Level FlightAware Approximate
04:21PM 42.1838 147.2014 225° Southwest  Level FlightAware Approximate
04:22PM 42.0994 147.0898 224° Southwest  Level FlightAware Approximate
04:23PM 42.0148 146.9786 224° Southwest  Level FlightAware Approximate
04:24PM 41.9301 146.8676 224° Southwest  Level FlightAware Approximate
04:25PM 41.8443 146.7585 223° Southwest  Level FlightAware Approximate
04:26PM 41.7581 146.6501 223° Southwest  Level FlightAware Approximate
04:27PM 41.6718 146.5418 223° Southwest  Level FlightAware Approximate
04:28PM 41.5854 146.4339 223° Southwest  Level FlightAware Approximate
04:29PM 41.4989 146.3263 223° Southwest  Level FlightAware Approximate
04:30PM 41.4123 146.2189 223° Southwest  Level FlightAware Approximate
04:31PM 41.3256 146.1119 223° Southwest  Level FlightAware Approximate
04:32PM 41.2388 146.0051 223° Southwest  Level FlightAware Approximate
04:33PM 41.1521 145.8983 224° Southwest  Level FlightAware Approximate
04:34PM 41.0665 145.7902 224° Southwest  Level FlightAware Approximate
04:35PM 40.9807 145.6824 224° Southwest  Level FlightAware Approximate
04:36PM 40.8949 145.5749 223° Southwest  Level FlightAware Approximate
04:37PM 40.8089 145.4676 223° Southwest  Level FlightAware Approximate
04:38PM 40.7228 145.3607 223° Southwest  Level FlightAware Approximate
04:39PM 40.6367 145.2540 223° Southwest  Level FlightAware Approximate
04:40PM 40.5504 145.1476 223° Southwest  Level FlightAware Approximate
04:41PM 40.4641 145.0414 223° Southwest  Level FlightAware Approximate
04:42PM 40.3773 144.9359 223° Southwest  Level FlightAware Approximate
04:43PM 40.2902 144.8312 223° Southwest  Level FlightAware Approximate
04:44PM 40.2029 144.7267 222° Southwest  Level FlightAware Approximate
04:45PM 40.1156 144.6225 222° Southwest  Level FlightAware Approximate
04:46PM 40.0281 144.5186 222° Southwest  Level FlightAware Approximate
04:47PM 39.9406 144.4149 222° Southwest  Level FlightAware Approximate
04:48PM 39.8530 144.3115 222° Southwest  Level FlightAware Approximate
04:49PM 39.7653 144.2084 222° Southwest  Level FlightAware Approximate
04:50PM 39.6774 144.1055 222° Southwest  Level FlightAware Approximate
04:51PM 39.5896 144.0029 222° Southwest  Level FlightAware Approximate
04:52PM 39.5016 143.9005 222° Southwest  Level FlightAware Approximate
04:53PM 39.4135 143.7984 222° Southwest  Level FlightAware Approximate
04:54PM 39.3253 143.6966 222° Southwest  Level FlightAware Approximate
04:55PM 39.2371 143.5950 222° Southwest  Level FlightAware Approximate
04:56PM 39.1484 143.4941 221° Southwest  Level FlightAware Approximate
04:57PM 39.0592 143.3942 221° Southwest  Level FlightAware Approximate
04:58PM 38.9699 143.2945 221° Southwest  Level FlightAware Approximate
04:59PM 38.8754 143.2072 197° South  Level FlightAware Approximate
05:00PM 38.7621 143.1640 197° South  Level FlightAware Approximate
05:01PM 38.6488 143.1208 197° South  Level FlightAware Approximate
05:02PM 38.5355 143.0778 197° South  Level FlightAware Approximate
05:03PM 38.4221 143.0349 197° South  Level FlightAware Approximate
05:04PM 38.3088 142.9922 196° South  Level FlightAware Approximate
05:05PM 38.1954 142.9496 196° South  Level FlightAware Approximate
05:06PM 38.0821 142.9071 196° South  Level FlightAware Approximate
05:07PM 37.9687 142.8647 196° South  Level FlightAware Approximate
05:08PM 37.8553 142.8225 196° South  Level FlightAware Approximate
05:09PM 37.7418 142.7804 196° South  Level FlightAware Approximate
05:10PM 37.6284 142.7384 196° South  Level FlightAware Approximate
05:11PM 37.5149 142.6966 196° South  Level FlightAware Approximate
05:12PM 37.4015 142.6549 196° South  Level FlightAware Approximate
05:13PM 37.2880 142.6133 196° South  Level FlightAware Approximate
05:14PM 37.1745 142.5719 196° South  Level FlightAware Approximate
05:15PM 37.0610 142.5306 196° South  Level FlightAware Approximate
05:16PM 36.9474 142.4894 196° South  Level FlightAware Approximate
05:17PM 36.8339 142.4483 196° South  Level FlightAware Approximate
05:18PM 36.7204 142.4073 196° South  Level FlightAware Approximate
05:19PM 36.6063 142.3687 195° South  Level FlightAware Approximate
05:20PM 36.4923 142.3299 200° South  Level FlightAware Approximate
05:21PM 36.3810 142.2804 200° South  Level FlightAware Approximate
05:22PM 36.2668 142.2440 196° South  Level FlightAware Approximate
05:23PM 36.1534 142.2027 196° South  Level FlightAware Approximate
05:24PM 36.0386 142.1680 191° South  Level FlightAware Approximate
05:25PM 36.0070 142.0313 251° West  Level FlightAware Approximate
05:26PM 35.9693 141.8929 251° West  Level FlightAware Approximate
05:27PM 35.9403 141.7513 256° West  Level FlightAware Approximate
05:28PM 35.9036 141.6127 251° West  Level FlightAware Approximate
05:29PM 35.8913 141.4680 265° West  Level FlightAware Approximate
05:30PM 35.8789 141.3231 258° West  Level FlightAware Approximate
05:31PM 35.8550 141.1802 258° West  Level FlightAware Approximate
05:32PM 35.8359 141.0363 261° West  Level FlightAware Approximate
05:33PM 35.8178 140.8923 261° West  Level FlightAware Approximate
05:34PM 35.8080 140.7474 261° West  Level FlightAware Approximate
05:35PM 35.7833 140.6083 270° West  Level FlightAware Approximate
05:36PM 35.7667 140.4647 270° West  Level FlightAware Approximate
05:37PM 35.7500 140.3833 253° West  Level FlightAware Approximate
05:38PM 35.7647 140.3864 253° West  Level Estimated
05:39PM 35.7647 140.3864 253° West  Level Estimated
05:40PM 35.7647 140.3864 253° West  Level Estimated
05:41PM 35.7647 140.3864 253° West  Level Estimated
05:42PM 35.7647 140.3864 253° West  Level Estimated
05:43PM 35.7647 140.3864 253° West  Level Estimated
05:44PM 35.7647 140.3864 253° West  Level Estimated
05:45PM 35.7647 140.3864 253° West  Level Estimated
05:45PM 35.6210 140.4790 253° West 140 161 2,900  Level FlightAware ADS-B
05:46PM 35.7647 140.3864 253° West  Level Estimated
05:46PM 35.6400 140.4650 329° Northwest 140 161 2,400  Level FlightAware ADS-B
05:48PM 35.7500 140.3833 253° West  Level FlightAware Approximate
05:49PM 35.7647 140.3864 253° West  Level Estimated
05:50PM 35.7647 140.3864 253° West  Level Estimated
05:51PM 35.7647 140.3864 253° West  Level Estimated
05:52PM 35.7647 140.3864 253° West  Level Estimated
05:53PM 35.7647 140.3864 253° West  Level Estimated
05:54PM 35.7647 140.3864 253° West  Level Estimated
05:55PM 35.7647 140.3864 253° West  Level Estimated
05:56PM 35.7647 140.3864 253° West  Level Estimated
05:57PM 35.7647 140.3864 253° West  Level Estimated
05:58PM 35.7647 140.3864 253° West  Level Estimated
05:59PM 35.7647 140.3864 253° West  Level Estimated
06:00PM 35.7647 140.3864 253° West  Level Estimated
06:01PM 35.7647 140.3864 253° West  Level Estimated
06:02PM 35.7647 140.3864 253° West  Level Estimated
06:03PM 35.7647 140.3864 253° West  Level Estimated
06:04PM 35.7647 140.3864 253° West  Level Estimated
06:05PM 35.7647 140.3864 253° West  Level Estimated